createdAt,value
2017-12-12T00:00:09.946Z,3.31
2017-12-12T00:01:09.932Z,3.31
2017-12-12T00:02:09.919Z,3.28
2017-12-12T00:03:09.909Z,3.41
2017-12-12T00:04:09.899Z,3.39
2017-12-12T00:05:09.887Z,3.39
2017-12-12T00:06:09.877Z,3.34
2017-12-12T00:07:09.867Z,3.30
2017-12-12T00:08:09.856Z,3.33
2017-12-12T00:09:09.849Z,3.31
2017-12-12T00:10:09.840Z,3.26
2017-12-12T00:11:09.829Z,3.13
2017-12-12T00:12:09.818Z,3.26
2017-12-12T00:13:09.803Z,3.26
2017-12-12T00:14:09.793Z,3.23
2017-12-12T00:15:09.784Z,3.12
2017-12-12T00:16:09.773Z,3.17
2017-12-12T00:17:09.768Z,3.25
2017-12-12T00:18:09.755Z,3.13
2017-12-12T00:19:09.746Z,3.19
2017-12-12T00:20:09.734Z,3.17
2017-12-12T00:21:09.745Z,3.16
2017-12-12T00:22:09.714Z,3.19
2017-12-12T00:23:09.703Z,3.07
2017-12-12T00:24:09.691Z,3.10
2017-12-12T00:25:09.677Z,3.04
2017-12-12T00:26:09.667Z,3.10
2017-12-12T00:27:09.656Z,3.07
2017-12-12T00:28:09.647Z,3.02
2017-12-12T00:29:09.636Z,3.10
2017-12-12T00:30:09.625Z,3.19
2017-12-12T00:31:09.615Z,3.19
2017-12-12T00:32:09.602Z,3.19
2017-12-12T00:33:09.601Z,3.15
2017-12-12T00:34:09.587Z,3.17
2017-12-12T00:35:09.577Z,3.15
2017-12-12T00:36:09.565Z,3.19
2017-12-12T00:37:09.555Z,3.17
2017-12-12T00:38:09.544Z,3.13
2017-12-12T00:39:09.534Z,3.19
2017-12-12T00:40:09.523Z,3.12
2017-12-12T00:41:09.508Z,3.15
2017-12-12T00:42:09.498Z,3.04
2017-12-12T00:43:09.487Z,3.04
2017-12-12T00:44:09.476Z,3.01
2017-12-12T00:45:09.466Z,3.13
2017-12-12T00:46:09.455Z,3.02
2017-12-12T00:47:09.445Z,2.99
2017-12-12T00:48:09.434Z,3.07
2017-12-12T00:49:09.427Z,3.07
2017-12-12T00:50:09.416Z,3.05
2017-12-12T00:51:09.406Z,3.04
2017-12-12T00:52:09.395Z,2.92
2017-12-12T00:53:09.383Z,2.99
2017-12-12T00:54:09.372Z,3.04
2017-12-12T00:55:09.363Z,2.98
2017-12-12T00:56:09.351Z,3.07
2017-12-12T00:57:09.337Z,3.12
2017-12-12T00:58:09.326Z,3.07
2017-12-12T00:59:09.315Z,3.02
2017-12-12T01:00:09.305Z,3.01
2017-12-12T01:01:09.293Z,3.05
2017-12-12T01:02:09.282Z,3.02
2017-12-12T01:03:09.271Z,2.90
2017-12-12T01:04:09.266Z,2.97
2017-12-12T01:05:09.255Z,2.97
2017-12-12T01:06:09.242Z,2.86
2017-12-12T01:07:09.232Z,2.90
2017-12-12T01:08:09.220Z,2.95
2017-12-12T01:09:09.210Z,2.92
2017-12-12T01:10:09.198Z,2.89
2017-12-12T01:11:09.189Z,2.92
2017-12-12T01:12:09.177Z,2.94
2017-12-12T01:13:09.162Z,2.92
2017-12-12T01:14:09.150Z,3.01
2017-12-12T01:15:09.139Z,2.86
2017-12-12T01:16:09.127Z,2.86
2017-12-12T01:17:09.122Z,2.87
2017-12-12T01:18:09.109Z,3.02
2017-12-12T01:19:09.099Z,2.86
2017-12-12T01:20:09.087Z,2.84
2017-12-12T01:21:09.072Z,2.89
2017-12-12T01:22:09.061Z,2.89
2017-12-12T01:23:09.051Z,2.87
2017-12-12T01:24:09.039Z,2.83
2017-12-12T01:25:09.028Z,2.89
2017-12-12T01:26:09.017Z,2.86
2017-12-12T01:27:09.006Z,2.87
2017-12-12T01:28:08.995Z,2.90
2017-12-12T01:29:08.988Z,2.92
2017-12-12T01:30:08.978Z,2.92
2017-12-12T01:31:08.966Z,2.81
2017-12-12T01:32:08.954Z,2.77
2017-12-12T01:33:08.943Z,2.87
2017-12-12T01:34:08.933Z,2.81
2017-12-12T01:35:08.923Z,2.89
2017-12-12T01:36:08.909Z,2.83
2017-12-12T01:37:08.895Z,2.87
2017-12-12T01:38:08.884Z,2.86
2017-12-12T01:39:08.873Z,2.84
2017-12-12T01:40:08.861Z,2.83
2017-12-12T01:41:08.851Z,2.99
2017-12-12T01:42:08.838Z,2.86
2017-12-12T01:43:08.828Z,2.97
2017-12-12T01:44:08.817Z,3.01
2017-12-12T01:45:08.809Z,2.92
2017-12-12T01:46:08.798Z,2.98
2017-12-12T01:47:08.789Z,3.02
2017-12-12T01:48:08.776Z,2.90
2017-12-12T01:49:08.766Z,2.89
2017-12-12T01:50:08.755Z,2.89
2017-12-12T01:51:08.745Z,2.98
2017-12-12T01:52:08.732Z,2.87
2017-12-12T01:53:08.716Z,3.01
2017-12-12T01:54:08.710Z,2.97
2017-12-12T01:55:08.696Z,2.99
2017-12-12T01:56:08.684Z,3.02
2017-12-12T01:57:08.673Z,2.87
2017-12-12T01:58:08.662Z,2.97
2017-12-12T01:59:08.652Z,2.98
2017-12-12T02:00:08.640Z,2.98
2017-12-12T02:01:08.632Z,3.05
2017-12-12T02:02:08.622Z,3.01
2017-12-12T02:03:08.615Z,2.94
2017-12-12T02:04:08.599Z,2.97
2017-12-12T02:05:08.590Z,2.90
2017-12-12T02:06:08.577Z,2.90
2017-12-12T02:07:08.567Z,3.01
2017-12-12T02:08:08.554Z,3.02
2017-12-12T02:09:08.541Z,2.97
2017-12-12T02:10:08.529Z,2.86
2017-12-12T02:11:08.517Z,2.89
2017-12-12T02:12:08.506Z,2.92
2017-12-12T02:13:08.495Z,3.01
2017-12-12T02:14:08.485Z,2.97
2017-12-12T02:15:08.473Z,2.87
2017-12-12T02:16:08.461Z,2.98
2017-12-12T02:17:08.455Z,2.99
2017-12-12T02:18:08.443Z,3.02
2017-12-12T02:19:08.433Z,3.04
2017-12-12T02:20:08.420Z,3.07
2017-12-12T02:21:08.406Z,3.01
2017-12-12T02:22:08.395Z,3.19
2017-12-12T02:23:08.384Z,3.22
2017-12-12T02:24:08.373Z,3.10
2017-12-12T02:25:08.365Z,3.07
2017-12-12T02:26:08.354Z,3.02
2017-12-12T02:27:08.344Z,3.07
2017-12-12T02:28:08.333Z,3.10
2017-12-12T02:29:08.321Z,3.04
2017-12-12T02:30:08.312Z,3.12
2017-12-12T02:31:08.299Z,3.13
2017-12-12T02:32:08.287Z,3.15
2017-12-12T02:33:08.274Z,3.23
2017-12-12T02:34:08.262Z,3.16
2017-12-12T02:35:08.251Z,3.16
2017-12-12T02:36:08.240Z,3.08
2017-12-12T02:37:08.229Z,3.19
2017-12-12T02:38:08.217Z,3.05
2017-12-12T02:39:08.208Z,3.16
2017-12-12T02:40:08.196Z,3.16
2017-12-12T02:41:08.188Z,3.16
2017-12-12T02:42:08.178Z,3.30
2017-12-12T02:43:08.167Z,3.17
2017-12-12T02:44:08.154Z,3.26
2017-12-12T02:45:08.145Z,3.23
2017-12-12T02:46:08.134Z,3.19
2017-12-12T02:47:08.122Z,3.22
2017-12-12T02:48:08.112Z,3.16
2017-12-12T02:49:08.096Z,3.26
2017-12-12T02:50:08.085Z,3.23
2017-12-12T02:51:08.077Z,3.23
2017-12-12T02:52:08.062Z,3.22
2017-12-12T02:53:08.052Z,3.20
2017-12-12T02:54:08.041Z,3.13
2017-12-12T02:55:08.030Z,3.31
2017-12-12T02:56:08.019Z,3.33
2017-12-12T02:57:08.012Z,3.20
2017-12-12T02:58:08.002Z,3.26
2017-12-12T02:59:07.990Z,3.28
2017-12-12T03:00:07.979Z,3.28
2017-12-12T03:01:07.967Z,3.23
2017-12-12T03:02:07.957Z,3.23
2017-12-12T03:03:07.947Z,3.35
2017-12-12T03:04:07.938Z,3.30
2017-12-12T03:05:07.919Z,3.25
2017-12-12T03:06:07.908Z,3.20
2017-12-12T03:07:07.898Z,3.33
2017-12-12T03:08:07.897Z,3.28
2017-12-12T03:09:07.876Z,3.23
2017-12-12T03:10:07.864Z,3.28
2017-12-12T03:11:07.853Z,3.22
2017-12-12T03:12:07.842Z,3.16
2017-12-12T03:13:07.836Z,3.23
2017-12-12T03:14:07.886Z,3.35
2017-12-12T03:15:07.813Z,3.33
2017-12-12T03:16:07.802Z,3.25
2017-12-12T03:17:07.791Z,3.31
2017-12-12T03:18:07.781Z,3.22
2017-12-12T03:19:07.770Z,3.19
2017-12-12T03:20:07.758Z,3.26
2017-12-12T03:21:07.743Z,3.26
2017-12-12T03:22:07.733Z,3.31
2017-12-12T03:23:07.721Z,3.25
2017-12-12T03:24:07.711Z,3.26
2017-12-12T03:25:07.704Z,3.34
2017-12-12T03:26:07.693Z,3.25
2017-12-12T03:27:07.682Z,3.19
2017-12-12T03:28:07.670Z,3.31
2017-12-12T03:29:07.655Z,3.23
2017-12-12T03:30:07.646Z,3.26
2017-12-12T03:31:07.635Z,3.20
2017-12-12T03:32:07.623Z,3.23
2017-12-12T03:33:07.612Z,3.16
2017-12-12T03:34:07.602Z,3.15
2017-12-12T03:35:07.591Z,3.16
2017-12-12T03:36:07.578Z,3.31
2017-12-12T03:37:07.573Z,3.31
2017-12-12T03:38:07.563Z,3.19
2017-12-12T03:39:07.551Z,3.20
2017-12-12T03:40:07.539Z,3.15
2017-12-12T03:41:07.528Z,3.26
2017-12-12T03:42:07.518Z,3.19
2017-12-12T03:43:07.507Z,3.31
2017-12-12T03:44:07.495Z,3.25
2017-12-12T03:45:07.481Z,3.22
2017-12-12T03:46:07.469Z,3.31
2017-12-12T03:47:07.458Z,3.30
2017-12-12T03:48:07.447Z,3.26
2017-12-12T03:49:07.436Z,3.31
2017-12-12T03:50:07.426Z,3.25
2017-12-12T03:51:07.416Z,3.31
2017-12-12T03:52:07.403Z,3.34
2017-12-12T03:53:07.399Z,3.31
2017-12-12T03:54:07.387Z,3.31
2017-12-12T03:55:07.376Z,3.34
2017-12-12T03:56:07.364Z,3.31
2017-12-12T03:57:07.353Z,3.31
2017-12-12T03:58:07.342Z,3.31
2017-12-12T03:59:07.332Z,3.33
2017-12-12T04:00:07.322Z,3.33
2017-12-12T04:01:07.305Z,3.34
2017-12-12T04:02:07.295Z,3.35
2017-12-12T04:03:07.285Z,3.35
2017-12-12T04:04:07.273Z,3.33
2017-12-12T04:05:07.262Z,3.34
2017-12-12T04:06:07.252Z,3.31
2017-12-12T04:07:07.241Z,3.37
2017-12-12T04:08:07.229Z,3.39
2017-12-12T04:09:07.223Z,3.54
2017-12-12T04:10:07.212Z,3.44
2017-12-12T04:11:07.201Z,3.41
2017-12-12T04:12:07.190Z,3.41
2017-12-12T04:13:07.179Z,3.41
2017-12-12T04:14:07.170Z,3.35
2017-12-12T04:15:07.158Z,3.41
2017-12-12T04:16:07.146Z,3.41
2017-12-12T04:17:07.139Z,3.39
2017-12-12T04:18:07.121Z,3.34
2017-12-12T04:19:07.110Z,3.33
2017-12-12T04:20:07.098Z,3.28
2017-12-12T04:21:07.088Z,3.39
2017-12-12T04:22:07.078Z,3.30
2017-12-12T04:23:07.066Z,3.37
2017-12-12T04:24:07.055Z,3.52
2017-12-12T04:25:07.048Z,3.39
2017-12-12T04:26:07.038Z,3.49
2017-12-12T04:27:07.028Z,3.39
2017-12-12T04:28:07.014Z,3.42
2017-12-12T04:29:07.003Z,3.41
2017-12-12T04:30:06.991Z,3.42
2017-12-12T04:31:06.980Z,3.45
2017-12-12T04:32:06.968Z,3.39
2017-12-12T04:33:06.968Z,3.57
2017-12-12T04:34:06.951Z,3.45
2017-12-12T04:35:06.942Z,3.44
2017-12-12T04:36:06.928Z,3.39
2017-12-12T04:37:06.919Z,3.30
2017-12-12T04:38:06.907Z,3.45
2017-12-12T04:39:06.896Z,3.34
2017-12-12T04:40:06.887Z,3.30
2017-12-12T04:41:06.870Z,3.31
2017-12-12T04:42:06.864Z,3.31
2017-12-12T04:43:06.849Z,3.37
2017-12-12T04:44:06.836Z,3.37
2017-12-12T04:45:06.827Z,3.28
2017-12-12T04:46:06.815Z,3.34
2017-12-12T04:47:06.804Z,3.42
2017-12-12T04:48:06.793Z,3.33
2017-12-12T04:49:06.787Z,3.28
2017-12-12T04:50:06.775Z,3.28
2017-12-12T04:51:06.768Z,3.35
2017-12-12T04:52:06.753Z,3.22
2017-12-12T04:53:06.741Z,3.25
2017-12-12T04:54:06.730Z,3.10
2017-12-12T04:55:06.719Z,3.26
2017-12-12T04:56:06.708Z,3.19
2017-12-12T04:57:06.693Z,3.13
2017-12-12T04:58:06.681Z,3.12
2017-12-12T04:59:06.671Z,3.07
2017-12-12T05:00:06.660Z,3.15
2017-12-12T05:01:06.651Z,3.19
2017-12-12T05:02:06.638Z,3.16
2017-12-12T05:03:06.626Z,3.15
2017-12-12T05:04:06.614Z,3.16
2017-12-12T05:05:06.608Z,3.10
2017-12-12T05:06:06.597Z,3.02
2017-12-12T05:07:06.588Z,2.99
2017-12-12T05:08:06.574Z,3.01
2017-12-12T05:09:06.563Z,3.04
2017-12-12T05:10:06.552Z,3.07
2017-12-12T05:11:06.540Z,2.99
2017-12-12T05:12:06.536Z,3.20
2017-12-12T05:13:06.514Z,3.15
2017-12-12T05:14:06.503Z,3.19
2017-12-12T05:15:06.492Z,3.17
2017-12-12T05:16:06.479Z,3.22
2017-12-12T05:17:06.469Z,3.15
2017-12-12T05:18:06.458Z,3.19
2017-12-12T05:19:06.446Z,3.17
2017-12-12T05:20:06.435Z,3.16
2017-12-12T05:21:06.427Z,3.13
2017-12-12T05:22:06.416Z,3.16
2017-12-12T05:23:06.405Z,3.15
2017-12-12T05:24:06.396Z,3.19
2017-12-12T05:25:06.383Z,3.20
2017-12-12T05:26:06.370Z,3.31
2017-12-12T05:27:06.360Z,3.28
2017-12-12T05:28:06.348Z,3.31
2017-12-12T05:29:06.333Z,3.28
2017-12-12T05:30:06.321Z,3.25
2017-12-12T05:31:06.310Z,3.26
2017-12-12T05:32:06.298Z,3.26
2017-12-12T05:33:06.294Z,3.28
2017-12-12T05:34:06.280Z,3.28
2017-12-12T05:35:06.269Z,3.33
2017-12-12T05:36:06.256Z,3.35
2017-12-12T05:37:06.242Z,3.26
2017-12-12T05:38:06.232Z,3.17
2017-12-12T05:39:06.224Z,3.16
2017-12-12T05:40:06.208Z,3.17
2017-12-12T05:41:06.198Z,3.12
2017-12-12T05:42:06.187Z,3.23
2017-12-12T05:43:06.175Z,3.15
2017-12-12T05:44:06.162Z,3.20
2017-12-12T05:45:06.157Z,3.28
2017-12-12T05:46:06.145Z,3.17
2017-12-12T05:47:06.135Z,3.17
2017-12-12T05:48:06.121Z,3.20
2017-12-12T05:49:06.111Z,3.20
2017-12-12T05:50:06.100Z,3.28
2017-12-12T05:51:06.088Z,3.15
2017-12-12T05:52:06.077Z,3.31
2017-12-12T05:53:06.060Z,3.30
2017-12-12T05:54:06.049Z,3.30
2017-12-12T05:55:06.039Z,3.20
2017-12-12T05:56:06.026Z,3.28
2017-12-12T05:57:06.015Z,3.26
2017-12-12T05:58:06.004Z,3.23
2017-12-12T05:59:05.993Z,3.28
2017-12-12T06:00:05.980Z,3.17
2017-12-12T06:01:05.973Z,3.26
2017-12-12T06:02:05.964Z,3.20
2017-12-12T06:03:05.953Z,3.20
2017-12-12T06:04:05.940Z,3.17
2017-12-12T06:05:05.928Z,3.16
2017-12-12T06:06:05.917Z,3.13
2017-12-12T06:07:05.906Z,3.12
2017-12-12T06:08:05.894Z,3.15
2017-12-12T06:09:05.878Z,3.16
2017-12-12T06:10:05.869Z,3.13
2017-12-12T06:11:05.856Z,3.10
2017-12-12T06:12:05.851Z,3.10
2017-12-12T06:13:05.833Z,3.02
2017-12-12T06:14:05.823Z,3.13
2017-12-12T06:15:05.811Z,3.17
2017-12-12T06:16:05.798Z,3.12
2017-12-12T06:17:05.792Z,3.08
2017-12-12T06:18:05.781Z,3.10
2017-12-12T06:19:05.770Z,3.07
2017-12-12T06:20:05.759Z,3.13
2017-12-12T06:21:05.747Z,3.17
2017-12-12T06:22:05.736Z,3.07
2017-12-12T06:23:05.724Z,3.07
2017-12-12T06:24:05.712Z,3.16
2017-12-12T06:25:05.697Z,3.17
2017-12-12T06:26:05.686Z,3.13
2017-12-12T06:27:05.675Z,3.22
2017-12-12T06:28:05.666Z,3.22
2017-12-12T06:29:05.652Z,3.12
2017-12-12T06:30:05.641Z,3.15
2017-12-12T06:31:05.630Z,3.16
2017-12-12T06:32:05.618Z,3.23
2017-12-12T06:33:05.611Z,3.37
2017-12-12T06:34:05.601Z,3.30
2017-12-12T06:35:05.589Z,3.33
2017-12-12T06:36:05.578Z,3.33
2017-12-12T06:37:05.566Z,3.33
2017-12-12T06:38:05.555Z,3.41
2017-12-12T06:39:05.544Z,3.33
2017-12-12T06:40:05.532Z,3.34
2017-12-12T06:41:05.517Z,3.37
2017-12-12T06:42:05.506Z,3.41
2017-12-12T06:43:05.495Z,3.25
2017-12-12T06:44:05.483Z,3.42
2017-12-12T06:45:05.472Z,3.37
2017-12-12T06:46:05.461Z,3.56
2017-12-12T06:47:05.451Z,3.57
2017-12-12T06:48:05.439Z,3.50
2017-12-12T06:49:05.434Z,3.56
2017-12-12T06:50:05.424Z,3.67
2017-12-12T06:51:05.410Z,3.63
2017-12-12T06:52:05.402Z,3.78
2017-12-12T06:53:05.387Z,3.81
2017-12-12T06:54:05.377Z,3.84
2017-12-12T06:55:05.366Z,3.82
2017-12-12T06:56:05.357Z,3.77
2017-12-12T06:57:05.339Z,3.74
2017-12-12T06:58:05.329Z,3.70
2017-12-12T06:59:05.321Z,3.71
2017-12-12T07:00:05.307Z,3.70
2017-12-12T07:01:05.295Z,3.64
2017-12-12T07:02:05.284Z,3.64
2017-12-12T07:03:05.273Z,3.67
2017-12-12T07:04:05.262Z,3.57
2017-12-12T07:05:05.255Z,3.67
2017-12-12T07:06:05.244Z,3.75
2017-12-12T07:07:05.234Z,3.86
2017-12-12T07:08:05.226Z,3.74
2017-12-12T07:09:05.211Z,3.82
2017-12-12T07:10:05.201Z,3.75
2017-12-12T07:11:05.191Z,3.77
2017-12-12T07:12:05.185Z,3.75
2017-12-12T07:13:05.163Z,3.82
2017-12-12T07:14:05.152Z,3.72
2017-12-12T07:15:05.143Z,3.71
2017-12-12T07:16:05.130Z,3.84
2017-12-12T07:17:05.119Z,3.77
2017-12-12T07:18:05.109Z,3.80
2017-12-12T07:19:05.099Z,3.82
2017-12-12T07:20:05.085Z,3.80
2017-12-12T07:21:05.080Z,3.84
2017-12-12T07:22:05.069Z,3.81
2017-12-12T07:23:05.059Z,3.82
2017-12-12T07:24:05.047Z,3.77
2017-12-12T07:25:05.040Z,3.81
2017-12-12T07:26:05.025Z,3.67
2017-12-12T07:27:05.014Z,3.78
2017-12-12T07:28:05.003Z,3.67
2017-12-12T07:29:04.988Z,3.78
2017-12-12T07:30:04.979Z,3.81
2017-12-12T07:31:04.966Z,3.81
2017-12-12T07:32:04.954Z,3.89
2017-12-12T07:33:04.943Z,3.92
2017-12-12T07:34:04.934Z,3.80
2017-12-12T07:35:04.923Z,3.88
2017-12-12T07:36:04.910Z,3.77
2017-12-12T07:37:04.904Z,3.77
2017-12-12T07:38:04.893Z,3.92
2017-12-12T07:39:04.905Z,3.95
2017-12-12T07:40:04.874Z,3.98
2017-12-12T07:41:04.859Z,3.96
2017-12-12T07:42:04.870Z,4.10
2017-12-12T07:43:04.878Z,4.04
2017-12-12T07:44:04.875Z,4.06
2017-12-12T07:45:04.817Z,3.99
2017-12-12T07:46:04.807Z,4.04
2017-12-12T07:47:04.796Z,3.99
2017-12-12T07:48:04.785Z,3.95
2017-12-12T07:49:04.774Z,4.06
2017-12-12T07:50:04.764Z,4.02
2017-12-12T07:51:04.754Z,4.06
2017-12-12T07:52:05.324Z,4.04
2017-12-12T07:53:04.726Z,4.02
2017-12-12T07:54:04.716Z,4.07
2017-12-12T07:55:04.706Z,4.06
2017-12-12T07:56:04.695Z,4.16
2017-12-12T07:57:04.684Z,4.08
2017-12-12T07:58:04.673Z,4.06
2017-12-12T07:59:04.663Z,4.06
2017-12-12T08:00:04.651Z,4.14
2017-12-12T08:01:04.645Z,4.10
2017-12-12T08:02:04.635Z,4.20
2017-12-12T08:03:04.624Z,4.17
2017-12-12T08:04:04.613Z,4.29
2017-12-12T08:05:04.603Z,4.13
2017-12-12T08:06:04.592Z,4.20
2017-12-12T08:07:04.581Z,4.20
2017-12-12T08:08:04.571Z,4.20
2017-12-12T08:09:04.555Z,4.32
2017-12-12T08:10:04.547Z,4.35
2017-12-12T08:11:04.537Z,4.25
2017-12-12T08:12:04.523Z,4.44
2017-12-12T08:13:04.513Z,4.39
2017-12-12T08:14:04.503Z,4.35
2017-12-12T08:15:04.492Z,4.47
2017-12-12T08:16:04.491Z,4.38
2017-12-12T08:17:04.475Z,4.43
2017-12-12T08:18:04.465Z,4.51
2017-12-12T08:19:04.454Z,4.49
2017-12-12T08:20:04.452Z,4.42
2017-12-12T08:21:04.433Z,4.47
2017-12-12T08:22:04.424Z,4.54
2017-12-12T08:23:04.413Z,4.59
2017-12-12T08:24:04.401Z,4.51
2017-12-12T08:25:04.387Z,4.61
2017-12-12T08:26:04.389Z,4.51
2017-12-12T08:27:04.367Z,4.54
2017-12-12T08:28:04.355Z,4.49
2017-12-12T08:29:04.346Z,4.68
2017-12-12T08:30:04.336Z,4.57
2017-12-12T08:31:04.326Z,4.47
2017-12-12T08:32:04.315Z,4.54
2017-12-12T08:33:04.309Z,4.50
2017-12-12T08:34:04.299Z,4.51
2017-12-12T08:35:04.289Z,4.49
2017-12-12T08:36:04.279Z,4.56
2017-12-12T08:37:04.268Z,4.51
2017-12-12T08:38:04.258Z,4.36
2017-12-12T08:39:04.250Z,4.51
2017-12-12T08:40:04.240Z,4.29
2017-12-12T08:41:04.223Z,4.25
2017-12-12T08:42:04.214Z,4.28
2017-12-12T08:43:04.204Z,4.31
2017-12-12T08:44:04.194Z,4.28
2017-12-12T08:45:04.187Z,4.29
2017-12-12T08:46:04.177Z,4.16
2017-12-12T08:47:04.166Z,4.13
2017-12-12T08:48:04.173Z,4.17
2017-12-12T08:49:04.142Z,4.17
2017-12-12T08:50:04.129Z,4.17
2017-12-12T08:51:04.119Z,4.18
2017-12-12T08:52:04.113Z,4.29
2017-12-12T08:53:04.097Z,4.32
2017-12-12T08:54:04.090Z,4.28
2017-12-12T08:55:04.079Z,4.36
2017-12-12T08:56:04.066Z,4.42
2017-12-12T08:57:04.060Z,4.51
2017-12-12T08:58:04.049Z,4.46
2017-12-12T08:59:04.039Z,4.46
2017-12-12T09:00:04.029Z,4.43
2017-12-12T09:01:04.018Z,4.44
2017-12-12T09:02:04.016Z,4.42
2017-12-12T09:03:03.999Z,4.47
2017-12-12T09:04:03.986Z,4.59
2017-12-12T09:05:03.973Z,4.53
2017-12-12T09:06:03.963Z,4.50
2017-12-12T09:07:03.952Z,4.43
2017-12-12T09:08:03.942Z,4.53
2017-12-12T09:09:03.932Z,4.49
2017-12-12T09:10:03.922Z,4.50
2017-12-12T09:11:03.914Z,4.49
2017-12-12T09:12:03.900Z,4.49
2017-12-12T09:13:03.900Z,4.68
2017-12-12T09:14:03.886Z,4.51
2017-12-12T09:15:03.875Z,4.57
2017-12-12T09:16:03.864Z,4.62
2017-12-12T09:17:03.854Z,4.65
2017-12-12T09:18:03.846Z,4.75
2017-12-12T09:19:03.836Z,4.84
2017-12-12T09:20:03.824Z,4.68
2017-12-12T09:21:03.810Z,4.75
2017-12-12T09:22:03.801Z,4.67
2017-12-12T09:23:03.793Z,4.61
2017-12-12T09:24:03.780Z,4.53
2017-12-12T09:25:03.769Z,4.67
2017-12-12T09:26:03.787Z,4.69
2017-12-12T09:27:03.750Z,4.79
2017-12-12T09:28:03.740Z,4.72
2017-12-12T09:29:03.735Z,4.68
2017-12-12T09:30:03.725Z,4.83
2017-12-12T09:31:03.715Z,4.65
2017-12-12T09:32:03.704Z,4.74
2017-12-12T09:33:03.695Z,4.71
2017-12-12T09:34:03.686Z,4.69
2017-12-12T09:35:03.675Z,4.71
2017-12-12T09:36:03.665Z,4.80
2017-12-12T09:37:03.652Z,4.84
2017-12-12T09:38:03.643Z,4.77
2017-12-12T09:39:03.632Z,4.69
2017-12-12T09:40:03.621Z,4.71
2017-12-12T09:41:03.611Z,4.83
2017-12-12T09:42:03.602Z,4.79
2017-12-12T09:43:03.592Z,4.91
2017-12-12T09:44:03.582Z,4.88
2017-12-12T09:45:03.584Z,4.87
2017-12-12T09:46:03.566Z,4.91
2017-12-12T09:47:03.559Z,4.86
2017-12-12T09:48:03.546Z,4.93
2017-12-12T09:49:03.532Z,4.87
2017-12-12T09:50:03.522Z,4.77
2017-12-12T09:51:03.513Z,4.71
2017-12-12T09:52:03.502Z,4.80
2017-12-12T09:53:03.497Z,4.90
2017-12-12T09:54:03.487Z,4.87
2017-12-12T09:55:03.477Z,4.86
2017-12-12T09:56:03.467Z,4.91
2017-12-12T09:57:03.462Z,4.93
2017-12-12T09:58:03.447Z,4.83
2017-12-12T09:59:03.438Z,4.87
2017-12-12T10:00:03.427Z,4.91
2017-12-12T10:01:03.416Z,4.87
2017-12-12T10:02:03.414Z,4.84
2017-12-12T10:03:03.407Z,4.87
2017-12-12T10:04:03.381Z,4.93
2017-12-12T10:05:03.371Z,4.74
2017-12-12T10:06:03.362Z,4.72
2017-12-12T10:07:03.354Z,4.62
2017-12-12T10:08:03.344Z,4.68
2017-12-12T10:09:03.336Z,4.62
2017-12-12T10:10:03.327Z,4.59
2017-12-12T10:11:03.317Z,4.61
2017-12-12T10:12:03.306Z,4.77
2017-12-12T10:13:03.297Z,4.68
2017-12-12T10:14:03.286Z,4.75
2017-12-12T10:15:03.277Z,4.83
2017-12-12T10:16:03.267Z,4.99
2017-12-12T10:17:03.255Z,5.08
2017-12-12T10:18:03.242Z,5.11
2017-12-12T10:19:03.234Z,5.15
2017-12-12T10:20:03.222Z,5.32
2017-12-12T10:21:03.212Z,5.08
2017-12-12T10:22:03.203Z,5.09
2017-12-12T10:23:03.194Z,5.02
2017-12-12T10:24:03.184Z,4.86
2017-12-12T10:25:03.179Z,4.93
2017-12-12T10:26:03.169Z,4.86
2017-12-12T10:27:03.159Z,4.93
2017-12-12T10:28:03.177Z,4.96
2017-12-12T10:29:03.141Z,5.02
2017-12-12T10:30:03.130Z,5.06
2017-12-12T10:31:03.119Z,5.04
2017-12-12T10:32:03.110Z,5.11
2017-12-12T10:33:03.097Z,5.15
2017-12-12T10:34:03.087Z,5.11
2017-12-12T10:35:03.080Z,5.09
2017-12-12T10:36:03.067Z,5.05
2017-12-12T10:37:03.058Z,5.09
2017-12-12T10:38:03.048Z,5.02
2017-12-12T10:39:03.040Z,5.01
2017-12-12T10:40:03.031Z,5.04
2017-12-12T10:41:03.049Z,4.91
2017-12-12T10:42:03.014Z,5.01
2017-12-12T10:43:03.005Z,4.90
2017-12-12T10:44:02.996Z,4.96
2017-12-12T10:45:02.985Z,5.08
2017-12-12T10:46:02.975Z,4.94
2017-12-12T10:47:02.966Z,4.96
2017-12-12T10:48:02.958Z,4.97
2017-12-12T10:49:02.943Z,4.94
2017-12-12T10:50:02.934Z,5.05
2017-12-12T10:51:02.925Z,5.02
2017-12-12T10:52:02.913Z,5.02
2017-12-12T10:53:02.909Z,4.94
2017-12-12T10:54:02.898Z,5.04
2017-12-12T10:55:02.889Z,5.05
2017-12-12T10:56:02.878Z,5.14
2017-12-12T10:57:02.864Z,4.97
2017-12-12T10:58:02.855Z,4.91
2017-12-12T10:59:02.847Z,5.05
2017-12-12T11:00:02.836Z,5.04
2017-12-12T11:01:02.827Z,5.04
2017-12-12T11:02:02.820Z,4.93
2017-12-12T11:03:02.807Z,4.93
2017-12-12T11:04:02.798Z,4.88
2017-12-12T11:05:02.792Z,4.99
2017-12-12T11:06:02.782Z,5.08
2017-12-12T11:07:02.772Z,5.09
2017-12-12T11:08:02.761Z,5.17
2017-12-12T11:09:02.752Z,5.06
2017-12-12T11:10:02.743Z,4.90
2017-12-12T11:11:02.733Z,4.91
2017-12-12T11:12:02.723Z,5.14
2017-12-12T11:13:02.716Z,5.02
2017-12-12T11:14:02.700Z,5.11
2017-12-12T11:15:02.691Z,5.11
2017-12-12T11:16:02.680Z,5.19
2017-12-12T11:17:02.670Z,5.29
2017-12-12T11:18:02.661Z,5.41
2017-12-12T11:19:02.651Z,5.30
2017-12-12T11:20:02.641Z,5.38
2017-12-12T11:21:02.635Z,5.41
2017-12-12T11:22:02.628Z,5.35
2017-12-12T11:23:02.617Z,5.45
2017-12-12T11:24:02.607Z,5.47
2017-12-12T11:25:02.600Z,5.45
2017-12-12T11:26:02.589Z,5.48
2017-12-12T11:27:02.580Z,5.74
2017-12-12T11:28:02.569Z,5.88
2017-12-12T11:29:02.556Z,5.95
2017-12-12T11:30:02.547Z,5.80
2017-12-12T11:31:02.538Z,5.78
2017-12-12T11:32:02.529Z,5.59
2017-12-12T11:33:02.519Z,5.63
2017-12-12T11:34:02.511Z,5.58
2017-12-12T11:35:02.504Z,5.59
2017-12-12T11:36:02.491Z,5.58
2017-12-12T11:37:02.488Z,5.48
2017-12-12T11:38:02.478Z,5.52
2017-12-12T11:39:02.469Z,5.47
2017-12-12T11:40:02.458Z,5.41
2017-12-12T11:41:02.450Z,5.38
2017-12-12T11:42:02.441Z,5.40
2017-12-12T11:43:02.432Z,5.32
2017-12-12T11:44:02.422Z,5.45
2017-12-12T11:45:02.410Z,5.47
2017-12-12T11:46:02.403Z,5.55
2017-12-12T11:47:02.390Z,5.55
2017-12-12T11:48:02.381Z,5.66
2017-12-12T11:49:02.371Z,5.67
2017-12-12T11:50:02.363Z,5.67
2017-12-12T11:51:02.353Z,5.63
2017-12-12T11:52:02.343Z,5.67
2017-12-12T11:53:02.339Z,5.67
2017-12-12T11:54:02.334Z,5.58
2017-12-12T11:55:02.320Z,5.51
2017-12-12T11:56:02.310Z,5.30
2017-12-12T11:57:02.297Z,5.26
2017-12-12T11:58:02.288Z,5.29
2017-12-12T11:59:02.280Z,5.40
2017-12-12T12:00:02.270Z,5.41
2017-12-12T12:01:02.264Z,5.44
2017-12-12T12:02:02.264Z,5.45
2017-12-12T12:03:02.246Z,5.44
2017-12-12T12:04:02.239Z,5.49
2017-12-12T12:05:02.227Z,5.65
2017-12-12T12:06:02.217Z,5.66
2017-12-12T12:07:02.209Z,5.62
2017-12-12T12:08:02.199Z,5.60
2017-12-12T12:09:02.186Z,5.65
2017-12-12T12:10:02.177Z,5.65
2017-12-12T12:11:02.169Z,5.75
2017-12-12T12:12:02.159Z,5.75
2017-12-12T12:13:02.153Z,5.62
2017-12-12T12:14:02.142Z,5.60
2017-12-12T12:15:02.131Z,5.55
2017-12-12T12:16:02.122Z,5.47
2017-12-12T12:17:02.118Z,5.56
2017-12-12T12:18:02.153Z,5.51
2017-12-12T12:19:02.099Z,5.58
2017-12-12T12:20:02.088Z,5.74
2017-12-12T12:21:02.081Z,5.83
2017-12-12T12:22:02.072Z,5.81
2017-12-12T12:23:02.062Z,5.67
2017-12-12T12:24:02.052Z,5.66
2017-12-12T12:25:02.044Z,5.63
2017-12-12T12:26:02.032Z,5.63
2017-12-12T12:27:02.022Z,5.62
2017-12-12T12:28:02.013Z,5.73
2017-12-12T12:29:02.004Z,5.78
2017-12-12T12:30:01.998Z,5.83
2017-12-12T12:31:01.986Z,5.75
2017-12-12T12:32:01.977Z,5.77
2017-12-12T12:33:01.973Z,5.93
2017-12-12T12:34:01.964Z,5.98
2017-12-12T12:35:01.955Z,6.06
2017-12-12T12:36:01.945Z,6.08
2017-12-12T12:37:01.935Z,6.13
2017-12-12T12:38:01.927Z,6.21
2017-12-12T12:39:01.919Z,6.11
2017-12-12T12:40:01.909Z,6.33
2017-12-12T12:41:01.895Z,6.25
2017-12-12T12:42:01.887Z,6.19
2017-12-12T12:43:01.880Z,6.19
2017-12-12T12:44:01.868Z,6.10
2017-12-12T12:45:01.868Z,6.11
2017-12-12T12:46:01.905Z,6.20
2017-12-12T12:47:01.843Z,6.20
2017-12-12T12:48:01.834Z,6.28
2017-12-12T12:49:01.830Z,6.33
2017-12-12T12:50:01.820Z,6.28
2017-12-12T12:51:01.812Z,6.32
2017-12-12T12:52:01.802Z,6.33
2017-12-12T12:53:01.795Z,6.40
2017-12-12T12:54:01.786Z,6.42
2017-12-12T12:55:01.778Z,6.43
2017-12-12T12:56:01.771Z,6.45
2017-12-12T12:57:01.756Z,6.42
2017-12-12T12:58:01.747Z,6.39
2017-12-12T12:59:01.743Z,6.42
2017-12-12T13:00:01.732Z,6.45
2017-12-12T13:01:01.725Z,6.46
2017-12-12T13:02:01.718Z,6.40
2017-12-12T13:03:01.708Z,6.27
2017-12-12T13:04:01.701Z,6.42
2017-12-12T13:05:01.687Z,6.50
2017-12-12T13:06:01.678Z,6.48
2017-12-12T13:07:01.669Z,6.60
2017-12-12T13:08:01.661Z,6.42
2017-12-12T13:09:01.652Z,6.55
2017-12-12T13:10:01.643Z,6.60
2017-12-12T13:11:01.636Z,6.57
2017-12-12T13:12:01.626Z,6.58
2017-12-12T13:13:01.621Z,6.63
2017-12-12T13:14:01.614Z,6.54
2017-12-12T13:15:01.605Z,6.30
2017-12-12T13:16:01.596Z,6.27
2017-12-12T13:17:01.587Z,6.32
2017-12-12T13:18:01.578Z,6.30